sensor_id;sensor_type;location;lat;lon;timestamp;pressure;altitude;pressure_sealevel;temperature;humidity
58955;BME280;45815;52.334;5.024;2023-09-30T00:00:35;102478.28;;;13.11;100.00
58955;BME280;45815;52.334;5.024;2023-09-30T00:03:01;102487.03;;;13.10;100.00
58955;BME280;45815;52.334;5.024;2023-09-30T00:05:27;102492.38;;;13.12;100.00
58955;BME280;45815;52.334;5.024;2023-09-30T00:07:52;102485.34;;;13.12;100.00
58955;BME280;45815;52.334;5.024;2023-09-30T00:10:17;102494.19;;;13.14;100.00
58955;BME280;45815;52.334;5.024;2023-09-30T00:12:43;102494.19;;;13.14;100.00
58955;BME280;45815;52.334;5.024;2023-09-30T00:15:09;102495.97;;;13.15;100.00
58955;BME280;45815;52.334;5.024;2023-09-30T00:17:34;102502.13;;;13.14;100.00
58955;BME280;45815;52.334;5.024;2023-09-30T00:19:59;102496.84;;;13.14;100.00
58955;BME280;45815;52.334;5.024;2023-09-30T00:22:24;102504.75;;;13.14;100.00
58955;BME280;45815;52.334;5.024;2023-09-30T00:24:50;102503.78;;;13.12;100.00
58955;BME280;45815;52.334;5.024;2023-09-30T00:27:16;102502.91;;;13.12;100.00
58955;BME280;45815;52.334;5.024;2023-09-30T00:29:41;102499.38;;;13.11;100.00
58955;BME280;45815;52.334;5.024;2023-09-30T00:32:07;102503.72;;;13.10;100.00
58955;BME280;45815;52.334;5.024;2023-09-30T00:34:33;102505.31;;;13.05;100.00
58955;BME280;45815;52.334;5.024;2023-09-30T00:36:58;102516.66;;;13.03;100.00
58955;BME280;45815;52.334;5.024;2023-09-30T00:39:24;102519.19;;;13.00;100.00
58955;BME280;45815;52.334;5.024;2023-09-30T00:41:52;102533.16;;;12.97;100.00
58955;BME280;45815;52.334;5.024;2023-09-30T00:44:17;102534.84;;;12.95;100.00
58955;BME280;45815;52.334;5.024;2023-09-30T00:46:42;102533.81;;;12.92;100.00
58955;BME280;45815;52.334;5.024;2023-09-30T00:49:08;102530.22;;;12.89;100.00
58955;BME280;45815;52.334;5.024;2023-09-30T00:51:35;102535.44;;;12.88;100.00
58955;BME280;45815;52.334;5.024;2023-09-30T00:54:01;102537.91;;;12.83;100.00
58955;BME280;45815;52.334;5.024;2023-09-30T00:56:27;102544.88;;;12.81;100.00
58955;BME280;45815;52.334;5.024;2023-09-30T00:58:53;102549.28;;;12.82;100.00
58955;BME280;45815;52.334;5.024;2023-09-30T01:01:22;102556.22;;;12.80;100.00
58955;BME280;45815;52.334;5.024;2023-09-30T01:03:47;102559.72;;;12.79;100.00
58955;BME280;45815;52.334;5.024;2023-09-30T01:06:13;102558.75;;;12.77;100.00
58955;BME280;45815;52.334;5.024;2023-09-30T01:08:39;102547.25;;;12.75;100.00
58955;BME280;45815;52.334;5.024;2023-09-30T01:11:05;102553.31;;;12.73;100.00
58955;BME280;45815;52.334;5.024;2023-09-30T01:13:36;102551.47;;;12.70;100.00
58955;BME280;45815;52.334;5.024;2023-09-30T01:16:03;102561.03;;;12.68;100.00
58955;BME280;45815;52.334;5.024;2023-09-30T01:18:29;102559.25;;;12.67;100.00
58955;BME280;45815;52.334;5.024;2023-09-30T01:20:54;102559.97;;;12.63;100.00
58955;BME280;45815;52.334;5.024;2023-09-30T01:23:20;102568.78;;;12.63;100.00
58955;BME280;45815;52.334;5.024;2023-09-30T01:25:45;102565.19;;;12.61;100.00
58955;BME280;45815;52.334;5.024;2023-09-30T01:28:10;102560.69;;;12.59;100.00
58955;BME280;45815;52.334;5.024;2023-09-30T01:30:36;102565.06;;;12.58;100.00
58955;BME280;45815;52.334;5.024;2023-09-30T01:33:01;102555.38;;;12.57;100.00
58955;BME280;45815;52.334;5.024;2023-09-30T01:35:26;102542.13;;;12.56;100.00
58955;BME280;45815;52.334;5.024;2023-09-30T01:37:52;102548.22;;;12.55;100.00
58955;BME280;45815;52.334;5.024;2023-09-30T01:40:17;102546.38;;;12.52;100.00
58955;BME280;45815;52.334;5.024;2023-09-30T01:42:43;102546.38;;;12.52;100.00
58955;BME280;45815;52.334;5.024;2023-09-30T01:45:09;102550.75;;;12.52;100.00
58955;BME280;45815;52.334;5.024;2023-09-30T01:47:35;102550.59;;;12.47;100.00
58955;BME280;45815;52.334;5.024;2023-09-30T01:50:01;102554.97;;;12.46;100.00
58955;BME280;45815;52.334;5.024;2023-09-30T01:52:26;102543.56;;;12.48;100.00
58955;BME280;45815;52.334;5.024;2023-09-30T01:54:51;102540.94;;;12.48;100.00
58955;BME280;45815;52.334;5.024;2023-09-30T01:57:17;102546.19;;;12.48;100.00
58955;BME280;45815;52.334;5.024;2023-09-30T01:59:42;102551.47;;;12.48;100.00
58955;BME280;45815;52.334;5.024;2023-09-30T02:02:07;102549.69;;;12.46;100.00
58955;BME280;45815;52.334;5.024;2023-09-30T02:04:33;102544.41;;;12.46;100.00
58955;BME280;45815;52.334;5.024;2023-09-30T02:06:58;102548.91;;;12.49;100.00
58955;BME280;45815;52.334;5.024;2023-09-30T02:09:26;102551.47;;;12.48;100.00
58955;BME280;45815;52.334;5.024;2023-09-30T02:11:51;102545.28;;;12.45;100.00
58955;BME280;45815;52.334;5.024;2023-09-30T02:14:16;102546.09;;;12.44;100.00
58955;BME280;45815;52.334;5.024;2023-09-30T02:16:42;102538.19;;;12.44;100.00
58955;BME280;45815;52.334;5.024;2023-09-30T02:19:07;102539.94;;;12.44;100.00
58955;BME280;45815;52.334;5.024;2023-09-30T02:21:35;102546.09;;;12.44;100.00
58955;BME280;45815;52.334;5.024;2023-09-30T02:24:01;102557.53;;;12.45;100.00
58955;BME280;45815;52.334;5.024;2023-09-30T02:26:27;102550.47;;;12.44;100.00
58955;BME280;45815;52.334;5.024;2023-09-30T02:28:54;102553.19;;;12.45;100.00
58955;BME280;45815;52.334;5.024;2023-09-30T02:31:19;102546.19;;;12.48;100.00
58955;BME280;45815;52.334;5.024;2023-09-30T02:33:45;102554.09;;;12.48;100.00
58955;BME280;45815;52.334;5.024;2023-09-30T02:36:10;102549.69;;;12.46;100.00
58955;BME280;45815;52.334;5.024;2023-09-30T02:38:37;102554.97;;;12.46;100.00
58955;BME280;45815;52.334;5.024;2023-09-30T02:41:03;102554.97;;;12.46;100.00
58955;BME280;45815;52.334;5.024;2023-09-30T02:43:28;102552.31;;;12.46;100.00
58955;BME280;45815;52.334;5.024;2023-09-30T02:45:55;102554.97;;;12.46;100.00
58955;BME280;45815;52.334;5.024;2023-09-30T02:48:20;102549.69;;;12.46;100.00
58955;BME280;45815;52.334;5.024;2023-09-30T02:50:45;102553.22;;;12.47;100.00
58955;BME280;45815;52.334;5.024;2023-09-30T02:53:11;102552.41;;;12.48;100.00
58955;BME280;45815;52.334;5.024;2023-09-30T02:55:38;102555.84;;;12.47;100.00
58955;BME280;45815;52.334;5.024;2023-09-30T02:58:03;102550.59;;;12.47;100.00
58955;BME280;45815;52.334;5.024;2023-09-30T03:00:28;102548.91;;;12.49;100.00
58955;BME280;45815;52.334;5.024;2023-09-30T03:02:59;102552.44;;;12.50;100.00
58955;BME280;45815;52.334;5.024;2023-09-30T03:05:24;102553.28;;;12.49;100.00
58955;BME280;45815;52.334;5.024;2023-09-30T03:07:50;102562.16;;;12.51;100.00
58955;BME280;45815;52.334;5.024;2023-09-30T03:10:17;102563.94;;;12.52;100.00
58955;BME280;45815;52.334;5.024;2023-09-30T03:12:51;102560.41;;;12.51;100.00
58955;BME280;45815;52.334;5.024;2023-09-30T03:15:17;102552.50;;;12.51;100.00
58955;BME280;45815;52.334;5.024;2023-09-30T03:17:42;102549.94;;;12.53;100.00
58955;BME280;45815;52.334;5.024;2023-09-30T03:20:08;102542.84;;;12.52;100.00
58955;BME280;45815;52.334;5.024;2023-09-30T03:22:38;102547.31;;;12.53;100.00
58955;BME280;45815;52.334;5.024;2023-09-30T03:25:03;102542.97;;;12.55;100.00
58955;BME280;45815;52.334;5.024;2023-09-30T03:27:32;102540.31;;;12.55;100.00
58955;BME280;45815;52.334;5.024;2023-09-30T03:29:58;102543.88;;;12.55;100.00
58955;BME280;45815;52.334;5.024;2023-09-30T03:32:23;102549.25;;;12.58;100.00
58955;BME280;45815;52.334;5.024;2023-09-30T03:34:50;102539.56;;;12.57;100.00
58955;BME280;45815;52.334;5.024;2023-09-30T03:37:15;102543.09;;;12.58;100.00
58955;BME280;45815;52.334;5.024;2023-09-30T03:39:40;102551.03;;;12.59;100.00
58955;BME280;45815;52.334;5.024;2023-09-30T03:42:06;102545.78;;;12.59;100.00
58955;BME280;45815;52.334;5.024;2023-09-30T03:44:32;102540.50;;;12.59;100.00
58955;BME280;45815;52.334;5.024;2023-09-30T03:46:57;102542.31;;;12.60;100.00
58955;BME280;45815;52.334;5.024;2023-09-30T03:49:24;102547.66;;;12.62;100.00
58955;BME280;45815;52.334;5.024;2023-09-30T03:51:49;102546.81;;;12.63;100.00
58955;BME280;45815;52.334;5.024;2023-09-30T03:54:16;102544.28;;;12.66;100.00
58955;BME280;45815;52.334;5.024;2023-09-30T03:56:42;102544.28;;;12.66;100.00
58955;BME280;45815;52.334;5.024;2023-09-30T03:59:08;102551.34;;;12.67;100.00
58955;BME280;45815;52.334;5.024;2023-09-30T04:01:34;102548.72;;;12.67;100.00
58955;BME280;45815;52.334;5.024;2023-09-30T04:03:59;102547.88;;;12.68;100.00
58955;BME280;45815;52.334;5.024;2023-09-30T04:06:25;102546.13;;;12.68;100.00
58955;BME280;45815;52.334;5.024;2023-09-30T04:08:50;102550.56;;;12.70;100.00
58955;BME280;45815;52.334;5.024;2023-09-30T04:11:15;102543.56;;;12.70;100.00
58955;BME280;45815;52.334;5.024;2023-09-30T04:13:44;102534.75;;;12.70;100.00
58955;BME280;45815;52.334;5.024;2023-09-30T04:16:09;102546.19;;;12.70;100.00
58955;BME280;45815;52.334;5.024;2023-09-30T04:18:34;102541.78;;;12.69;100.00
58955;BME280;45815;52.334;5.024;2023-09-30T04:21:00;102554.09;;;12.70;100.00
58955;BME280;45815;52.334;5.024;2023-09-30T04:23:25;102555.88;;;12.71;100.00
58955;BME280;45815;52.334;5.024;2023-09-30T04:25:50;102569.06;;;12.71;100.00
58955;BME280;45815;52.334;5.024;2023-09-30T04:28:16;102570.88;;;12.72;100.00
58955;BME280;45815;52.334;5.024;2023-09-30T04:30:46;102563.84;;;12.73;100.00
58955;BME280;45815;52.334;5.024;2023-09-30T04:33:12;102565.66;;;12.74;100.00
58955;BME280;45815;52.334;5.024;2023-09-30T04:35:38;102571.81;;;12.74;100.00
58955;BME280;45815;52.334;5.024;2023-09-30T04:38:03;102570.97;;;12.75;100.00
58955;BME280;45815;52.334;5.024;2023-09-30T04:40:29;102570.97;;;12.75;100.00
58955;BME280;45815;52.334;5.024;2023-09-30T04:42:55;102571.88;;;12.76;100.00
58955;BME280;45815;52.334;5.024;2023-09-30T04:45:23;102570.97;;;12.75;100.00
58955;BME280;45815;52.334;5.024;2023-09-30T04:47:49;102581.50;;;12.75;100.00
58955;BME280;45815;52.334;5.024;2023-09-30T04:50:15;102585.03;;;12.76;100.00
58955;BME280;45815;52.334;5.024;2023-09-30T04:52:41;102596.50;;;12.76;100.00
58955;BME280;45815;52.334;5.024;2023-09-30T04:55:07;102598.28;;;12.77;100.00
58955;BME280;45815;52.334;5.024;2023-09-30T04:57:33;102598.28;;;12.77;100.00
58955;BME280;45815;52.334;5.024;2023-09-30T04:59:58;102599.94;;;12.75;100.00
58955;BME280;45815;52.334;5.024;2023-09-30T05:02:24;102594.69;;;12.75;100.00
58955;BME280;45815;52.334;5.024;2023-09-30T05:04:49;102589.47;;;12.77;100.00
58955;BME280;45815;52.334;5.024;2023-09-30T05:07:15;102582.47;;;12.77;100.00
58955;BME280;45815;52.334;5.024;2023-09-30T05:09:41;102585.19;;;12.79;100.00
58955;BME280;45815;52.334;5.024;2023-09-30T05:12:07;102589.56;;;12.78;100.00
58955;BME280;45815;52.334;5.024;2023-09-30T05:14:32;102581.66;;;12.78;100.00
58955;BME280;45815;52.334;5.024;2023-09-30T05:16:58;102578.09;;;12.78;100.00
58955;BME280;45815;52.334;5.024;2023-09-30T05:19:24;102574.56;;;12.77;100.00
58955;BME280;45815;52.334;5.024;2023-09-30T05:21:49;102571.03;;;12.77;100.00
58955;BME280;45815;52.334;5.024;2023-09-30T05:24:15;102579.75;;;12.76;100.00
58955;BME280;45815;52.334;5.024;2023-09-30T05:26:44;102581.47;;;12.74;100.00
58955;BME280;45815;52.334;5.024;2023-09-30T05:29:10;102587.50;;;12.71;100.00
58955;BME280;45815;52.334;5.024;2023-09-30T05:31:35;102585.72;;;12.70;100.00
58955;BME280;45815;52.334;5.024;2023-09-30T05:34:01;102589.13;;;12.67;100.00
58955;BME280;45815;52.334;5.024;2023-09-30T05:36:27;102589.94;;;12.66;100.00
58955;BME280;45815;52.334;5.024;2023-09-30T05:38:52;102596.94;;;12.64;100.00
58955;BME280;45815;52.334;5.024;2023-09-30T05:41:20;102595.13;;;12.63;100.00
58955;BME280;45815;52.334;5.024;2023-09-30T05:43:46;102584.47;;;12.60;100.00
58955;BME280;45815;52.334;5.024;2023-09-30T05:46:11;102584.47;;;12.60;100.00
58955;BME280;45815;52.334;5.024;2023-09-30T05:48:36;102593.25;;;12.61;100.00
58955;BME280;45815;52.334;5.024;2023-09-30T05:51:04;102597.72;;;12.62;100.00
58955;BME280;45815;52.334;5.024;2023-09-30T05:53:29;102600.44;;;12.65;100.00
58955;BME280;45815;52.334;5.024;2023-09-30T05:55:57;102602.22;;;12.66;100.00
58955;BME280;45815;52.334;5.024;2023-09-30T05:58:24;102604.06;;;12.67;100.00
58955;BME280;45815;52.334;5.024;2023-09-30T06:00:49;102613.84;;;12.71;100.00
58955;BME280;45815;52.334;5.024;2023-09-30T06:03:15;102622.72;;;12.73;100.00
58955;BME280;45815;52.334;5.024;2023-09-30T06:05:41;102608.75;;;12.76;100.00
58955;BME280;45815;52.334;5.024;2023-09-30T06:08:07;102606.25;;;12.79;100.00
58955;BME280;45815;52.334;5.024;2023-09-30T06:10:35;102605.47;;;12.81;100.00
58955;BME280;45815;52.334;5.024;2023-09-30T06:13:03;102606.59;;;12.88;100.00
58955;BME280;45815;52.334;5.024;2023-09-30T06:15:28;102613.72;;;12.91;100.00
58955;BME280;45815;52.334;5.024;2023-09-30T06:17:54;102608.47;;;12.91;100.00
58955;BME280;45815;52.334;5.024;2023-09-30T06:20:20;102609.28;;;12.89;100.00
58955;BME280;45815;52.334;5.024;2023-09-30T06:22:47;102611.19;;;12.94;100.00
58955;BME280;45815;52.334;5.024;2023-09-30T06:25:16;102612.41;;;13.02;100.00
58955;BME280;45815;52.334;5.024;2023-09-30T06:27:45;102609.00;;;13.06;100.00
58955;BME280;45815;52.334;5.024;2023-09-30T06:30:10;102621.47;;;13.10;100.00
58955;BME280;45815;52.334;5.024;2023-09-30T06:32:36;102628.66;;;13.14;100.00
58955;BME280;45815;52.334;5.024;2023-09-30T06:35:04;102633.22;;;13.18;100.00
58955;BME280;45815;52.334;5.024;2023-09-30T06:37:31;102638.59;;;13.21;100.00
58955;BME280;45815;52.334;5.024;2023-09-30T06:39:56;102636.06;;;13.24;100.00
58955;BME280;45815;52.334;5.024;2023-09-30T06:42:22;102630.69;;;13.21;100.00
58955;BME280;45815;52.334;5.024;2023-09-30T06:44:47;102632.38;;;13.19;100.00
58955;BME280;45815;52.334;5.024;2023-09-30T06:47:12;102635.00;;;13.19;100.00
58955;BME280;45815;52.334;5.024;2023-09-30T06:49:38;102646.44;;;13.20;100.00
58955;BME280;45815;52.334;5.024;2023-09-30T06:52:04;102654.41;;;13.21;100.00
58955;BME280;45815;52.334;5.024;2023-09-30T06:54:30;102659.69;;;13.21;100.00
58955;BME280;45815;52.334;5.024;2023-09-30T06:56:56;102660.59;;;13.22;100.00
58955;BME280;45815;52.334;5.024;2023-09-30T06:59:21;102655.47;;;13.26;100.00
58955;BME280;45815;52.334;5.024;2023-09-30T07:01:46;102656.47;;;13.28;100.00
58955;BME280;45815;52.334;5.024;2023-09-30T07:04:11;102669.72;;;13.30;100.00
58955;BME280;45815;52.334;5.024;2023-09-30T07:06:37;102673.28;;;13.32;100.00
58955;BME280;45815;52.334;5.024;2023-09-30T07:09:02;102682.31;;;13.37;100.00
58955;BME280;45815;52.334;5.024;2023-09-30T07:11:28;102687.75;;;13.42;100.00
58955;BME280;45815;52.334;5.024;2023-09-30T07:13:54;102681.63;;;13.43;100.00
58955;BME280;45815;52.334;5.024;2023-09-30T07:16:19;102693.06;;;13.43;100.00
58955;BME280;45815;52.334;5.024;2023-09-30T07:18:45;102685.22;;;13.45;100.00
58955;BME280;45815;52.334;5.024;2023-09-30T07:21:11;102684.50;;;13.49;100.00
58955;BME280;45815;52.334;5.024;2023-09-30T07:23:36;102688.97;;;13.51;100.00
58955;BME280;45815;52.334;5.024;2023-09-30T07:26:02;102687.34;;;13.55;100.00
58955;BME280;45815;52.334;5.024;2023-09-30T07:28:28;102687.50;;;13.60;100.00
58955;BME280;45815;52.334;5.024;2023-09-30T07:30:53;102682.28;;;13.61;100.00
58955;BME280;45815;52.334;5.024;2023-09-30T07:33:19;102697.44;;;13.67;100.00
58955;BME280;45815;52.334;5.024;2023-09-30T07:35:45;102694.94;;;13.70;100.00
58955;BME280;45815;52.334;5.024;2023-09-30T07:38:10;102698.69;;;13.77;100.00
58955;BME280;45815;52.334;5.024;2023-09-30T07:40:35;102695.53;;;13.87;100.00
58955;BME280;45815;52.334;5.024;2023-09-30T07:43:01;102708.09;;;13.94;100.00
58955;BME280;45815;52.334;5.024;2023-09-30T07:45:26;102711.84;;;14.01;100.00
58955;BME280;45815;52.334;5.024;2023-09-30T07:47:53;102729.63;;;14.06;100.00
58955;BME280;45815;52.334;5.024;2023-09-30T07:50:18;102719.19;;;14.09;100.00
58955;BME280;45815;52.334;5.024;2023-09-30T07:52:44;102710.50;;;14.13;100.00
58955;BME280;45815;52.334;5.024;2023-09-30T07:55:10;102715.91;;;14.17;100.00
58955;BME280;45815;52.334;5.024;2023-09-30T07:57:35;102705.44;;;14.20;100.00
58955;BME280;45815;52.334;5.024;2023-09-30T08:00:01;102701.22;;;14.25;100.00
58955;BME280;45815;52.334;5.024;2023-09-30T08:02:34;102696.97;;;14.30;100.00
58955;BME280;45815;52.334;5.024;2023-09-30T08:05:01;102688.31;;;14.34;100.00
58955;BME280;45815;52.334;5.024;2023-09-30T08:07:27;102687.59;;;14.40;100.00
58955;BME280;45815;52.334;5.024;2023-09-30T08:09:52;102688.72;;;14.46;100.00
58955;BME280;45815;52.334;5.024;2023-09-30T08:12:17;102687.97;;;14.50;100.00
58955;BME280;45815;52.334;5.024;2023-09-30T08:14:43;102678.47;;;14.55;100.00
58955;BME280;45815;52.334;5.024;2023-09-30T08:17:11;102675.19;;;14.63;100.00
58955;BME280;45815;52.334;5.024;2023-09-30T08:19:36;102669.22;;;14.68;100.00
58955;BME280;45815;52.334;5.024;2023-09-30T08:22:02;102685.25;;;14.74;100.00
58955;BME280;45815;52.334;5.024;2023-09-30T08:24:31;102684.63;;;14.83;100.00
58955;BME280;45815;52.334;5.024;2023-09-30T08:26:56;102683.97;;;14.90;100.00
58955;BME280;45815;52.334;5.024;2023-09-30T08:29:22;102684.19;;;14.96;100.00
58955;BME280;45815;52.334;5.024;2023-09-30T08:31:47;102684.34;;;15.03;100.00
58955;BME280;45815;52.334;5.024;2023-09-30T08:34:15;102698.66;;;15.09;100.00
58955;BME280;45815;52.334;5.024;2023-09-30T08:36:40;102695.44;;;15.19;100.00
58955;BME280;45815;52.334;5.024;2023-09-30T08:39:06;102690.31;;;15.26;100.00
58955;BME280;45815;52.334;5.024;2023-09-30T08:41:32;102697.56;;;15.31;100.00
58955;BME280;45815;52.334;5.024;2023-09-30T08:44:01;102696.88;;;15.38;100.00
58955;BME280;45815;52.334;5.024;2023-09-30T08:46:31;102698.03;;;15.48;100.00
58955;BME280;45815;52.334;5.024;2023-09-30T08:49:00;102688.69;;;15.61;100.00
58955;BME280;45815;52.334;5.024;2023-09-30T08:51:26;102690.94;;;15.77;100.00
58955;BME280;45815;52.334;5.024;2023-09-30T08:53:53;102682.66;;;15.97;100.00
58955;BME280;45815;52.334;5.024;2023-09-30T08:56:22;102680.56;;;16.20;100.00
58955;BME280;45815;52.334;5.024;2023-09-30T08:58:49;102675.84;;;16.43;100.00
58955;BME280;45815;52.334;5.024;2023-09-30T09:01:15;102680.66;;;16.59;100.00
58955;BME280;45815;52.334;5.024;2023-09-30T09:03:41;102685.69;;;16.85;100.00
58955;BME280;45815;52.334;5.024;2023-09-30T09:06:06;102691.41;;;17.03;100.00
58955;BME280;45815;52.334;5.024;2023-09-30T09:08:32;102690.19;;;17.28;100.00
58955;BME280;45815;52.334;5.024;2023-09-30T09:10:59;102687.13;;;17.52;100.00
58955;BME280;45815;52.334;5.024;2023-09-30T09:13:25;102698.91;;;17.67;100.00
58955;BME280;45815;52.334;5.024;2023-09-30T09:16:05;102705.00;;;17.61;100.00
58955;BME280;45815;52.334;5.024;2023-09-30T09:18:31;102705.72;;;17.52;100.00
58955;BME280;45815;52.334;5.024;2023-09-30T09:21:09;102716.34;;;17.52;100.00
58955;BME280;45815;52.334;5.024;2023-09-30T09:23:42;102723.38;;;17.50;100.00
58955;BME280;45815;52.334;5.024;2023-09-30T09:26:12;102724.53;;;17.65;100.00
58955;BME280;45815;52.334;5.024;2023-09-30T09:28:37;102718.69;;;17.81;100.00
58955;BME280;45815;52.334;5.024;2023-09-30T09:31:20;102720.59;;;17.88;100.00
58955;BME280;45815;52.334;5.024;2023-09-30T09:33:47;102713.50;;;17.87;100.00
58955;BME280;45815;52.334;5.024;2023-09-30T09:36:12;102719.88;;;17.97;100.00
58955;BME280;45815;52.334;5.024;2023-09-30T09:38:48;102725.50;;;18.14;100.00
58955;BME280;45815;52.334;5.024;2023-09-30T09:41:13;102715.25;;;18.35;100.00
58955;BME280;45815;52.334;5.024;2023-09-30T09:43:40;102718.16;;;18.51;100.00
58955;BME280;45815;52.334;5.024;2023-09-30T09:46:09;102717.56;;;18.69;100.00
58955;BME280;45815;52.334;5.024;2023-09-30T09:48:35;102705.88;;;18.59;100.00
58955;BME280;45815;52.334;5.024;2023-09-30T09:51:01;102703.78;;;18.40;100.00
58955;BME280;45815;52.334;5.024;2023-09-30T09:53:28;102710.63;;;18.25;100.00
58955;BME280;45815;52.334;5.024;2023-09-30T09:55:56;102725.28;;;18.02;100.00
58955;BME280;45815;52.334;5.024;2023-09-30T09:58:21;102736.53;;;17.87;100.00
58955;BME280;45815;52.334;5.024;2023-09-30T10:00:47;102737.06;;;17.72;100.00
58955;BME280;45815;52.334;5.024;2023-09-30T10:03:13;102731.44;;;17.55;100.00
58955;BME280;45815;52.334;5.024;2023-09-30T10:05:38;102726.00;;;17.49;100.00
58955;BME280;45815;52.334;5.024;2023-09-30T10:08:05;102724.25;;;17.51;100.00
58955;BME280;45815;52.334;5.024;2023-09-30T10:10:35;102718.47;;;17.72;100.00
58955;BME280;45815;52.334;5.024;2023-09-30T10:13:01;102704.75;;;17.91;100.00
58955;BME280;45815;52.334;5.024;2023-09-30T10:20:26;102699.56;;;18.52;100.00
58955;BME280;45815;52.334;5.024;2023-09-30T10:23:09;102693.47;;;18.61;100.00
58955;BME280;45815;52.334;5.024;2023-09-30T10:25:37;102698.13;;;18.74;100.00
58955;BME280;45815;52.334;5.024;2023-09-30T10:28:31;102688.53;;;18.83;100.00
58955;BME280;45815;52.334;5.024;2023-09-30T10:33:33;102678.25;;;19.10;100.00
58955;BME280;45815;52.334;5.024;2023-09-30T10:35:58;102673.00;;;19.15;100.00
58955;BME280;45815;52.334;5.024;2023-09-30T10:41:00;102676.56;;;19.15;100.00
58955;BME280;45815;52.334;5.024;2023-09-30T10:45:53;102673.53;;;18.89;100.00
58955;BME280;45815;52.334;5.024;2023-09-30T10:50:51;102670.88;;;18.88;100.00
58955;BME280;45815;52.334;5.024;2023-09-30T10:53:16;102680.88;;;19.07;100.00
58955;BME280;45815;52.334;5.024;2023-09-30T10:55:42;102682.91;;;19.25;100.00
58955;BME280;45815;52.334;5.024;2023-09-30T10:58:10;102660.75;;;19.28;100.00
58955;BME280;45815;52.334;5.024;2023-09-30T11:00:35;102661.72;;;19.34;100.00
58955;BME280;45815;52.334;5.024;2023-09-30T11:03:01;102662.81;;;19.53;100.00
58955;BME280;45815;52.334;5.024;2023-09-30T11:05:27;102647.78;;;19.61;100.00
58955;BME280;45815;52.334;5.024;2023-09-30T11:07:53;102637.22;;;19.68;100.00
58955;BME280;45815;52.334;5.024;2023-09-30T11:10:22;102646.41;;;19.97;100.00
58955;BME280;45815;52.334;5.024;2023-09-30T11:12:56;102640.38;;;20.21;100.00
58955;BME280;45815;52.334;5.024;2023-09-30T11:15:23;102637.03;;;20.50;100.00
58955;BME280;45815;52.334;5.024;2023-09-30T11:17:49;102632.72;;;20.69;100.00
58955;BME280;45815;52.334;5.024;2023-09-30T11:20:16;102620.41;;;20.91;100.00
58955;BME280;45815;52.334;5.024;2023-09-30T11:22:41;102615.19;;;21.29;100.00
58955;BME280;45815;52.334;5.024;2023-09-30T11:25:06;102617.97;;;21.57;100.00
58955;BME280;45815;52.334;5.024;2023-09-30T11:27:39;102619.75;;;21.74;100.00
58955;BME280;45815;52.334;5.024;2023-09-30T11:30:05;102618.84;;;22.10;100.00
58955;BME280;45815;52.334;5.024;2023-09-30T11:32:33;102620.66;;;22.36;100.00
58955;BME280;45815;52.334;5.024;2023-09-30T11:34:58;102625.91;;;22.77;100.00
58955;BME280;45815;52.334;5.024;2023-09-30T11:37:30;102630.28;;;23.12;100.00
58955;BME280;45815;52.334;5.024;2023-09-30T11:39:55;102616.78;;;23.30;100.00
58955;BME280;45815;52.334;5.024;2023-09-30T11:42:21;102613.13;;;23.41;100.00
58955;BME280;45815;52.334;5.024;2023-09-30T11:44:46;102624.69;;;23.52;100.00
58955;BME280;45815;52.334;5.024;2023-09-30T11:47:13;102619.38;;;23.43;100.00
58955;BME280;45815;52.334;5.024;2023-09-30T11:49:39;102612.13;;;23.58;100.00
58955;BME280;45815;52.334;5.024;2023-09-30T11:52:08;102622.94;;;23.51;100.00
58955;BME280;45815;52.334;5.024;2023-09-30T11:54:36;102613.78;;;23.84;100.00
58955;BME280;45815;52.334;5.024;2023-09-30T11:57:04;102611.06;;;23.86;100.00
58955;BME280;45815;52.334;5.024;2023-09-30T11:59:30;102605.69;;;23.87;100.00
58955;BME280;45815;52.334;5.024;2023-09-30T12:01:56;102593.28;;;23.71;100.00
58955;BME280;45815;52.334;5.024;2023-09-30T12:04:21;102596.75;;;23.87;100.00
58955;BME280;45815;52.334;5.024;2023-09-30T12:06:46;102604.34;;;24.36;100.00
58955;BME280;45815;52.334;5.024;2023-09-30T12:09:13;102601.31;;;24.70;100.00
58955;BME280;45815;52.334;5.024;2023-09-30T12:11:42;102601.13;;;24.85;100.00
58955;BME280;45815;52.334;5.024;2023-09-30T12:14:12;102597.63;;;24.77;100.00
58955;BME280;45815;52.334;5.024;2023-09-30T12:16:38;102598.00;;;24.43;100.00
58955;BME280;45815;52.334;5.024;2023-09-30T12:19:03;102598.09;;;24.32;100.00
58955;BME280;45815;52.334;5.024;2023-09-30T12:21:30;102589.00;;;24.50;100.00
58955;BME280;45815;52.334;5.024;2023-09-30T12:23:57;102594.28;;;24.61;100.00
58955;BME280;45815;52.334;5.024;2023-09-30T12:26:22;102589.31;;;24.19;100.00
58955;BME280;45815;52.334;5.024;2023-09-30T12:28:47;102593.50;;;24.48;100.00
58955;BME280;45815;52.334;5.024;2023-09-30T12:31:13;102588.09;;;24.53;100.00
58955;BME280;45815;52.334;5.024;2023-09-30T12:33:39;102583.38;;;24.75;100.00
58955;BME280;45815;52.334;5.024;2023-09-30T12:36:04;102582.97;;;24.27;100.00
58955;BME280;45815;52.334;5.024;2023-09-30T12:38:29;102588.63;;;23.96;100.00
58955;BME280;45815;52.334;5.024;2023-09-30T12:40:55;102588.84;;;23.68;100.00
58955;BME280;45815;52.334;5.024;2023-09-30T12:43:20;102587.25;;;23.39;100.00
58955;BME280;45815;52.334;5.024;2023-09-30T12:45:46;102590.88;;;23.29;100.00
58955;BME280;45815;52.334;5.024;2023-09-30T12:48:12;102585.63;;;23.14;100.00
58955;BME280;45815;52.334;5.024;2023-09-30T12:50:37;102585.69;;;23.00;100.00